Time;durP1;ratioP1;P1;durP2;ratioP2;P2;SDS_P1;SDS_P2;PMS_P1;PMS_P2;Temp;Humidity;BMP_temperature;BMP_pressure;BME280_temperature;BME280_humidity;BME280_pressure;Samples;Min_cycle;Max_cycle;Signal;HPM_P1;HPM_P2
2022/12/09 00:01:20;;;;;;;16.93;10.37;;;-2.00;99.90;;;;;;5108994;27;20043;-75
2022/12/09 00:03:46;;;;;;;21.05;10.00;;;-2.10;99.90;;;;;;5104739;27;20404;-76
2022/12/09 00:06:17;;;;;;;17.97;10.23;;;-2.00;99.90;;;;;;5128585;27;20039;-76
2022/12/09 00:08:44;;;;;;;17.13;9.77;;;-2.10;99.90;;;;;;5113545;27;20043;-76
2022/12/09 00:11:09;;;;;;;17.50;9.97;;;-2.10;99.90;;;;;;5114360;27;20038;-76
2022/12/09 00:13:35;;;;;;;19.43;10.27;;;-2.00;99.90;;;;;;5104042;27;20035;-76
2022/12/09 00:16:05;;;;;;;16.33;9.27;;;-2.00;99.90;;;;;;5105035;28;20066;-76
2022/12/09 00:18:31;;;;;;;17.53;9.77;;;-2.00;99.90;;;;;;5126112;27;20427;-76
2022/12/09 00:20:56;;;;;;;20.43;10.40;;;-2.00;99.90;;;;;;5096108;28;20042;-77
2022/12/09 00:23:22;;;;;;;18.17;9.77;;;-2.00;99.90;;;;;;5122833;27;20091;-76
2022/12/09 00:25:47;;;;;;;18.87;10.20;;;-2.10;99.90;;;;;;5126274;27;20039;-77
2022/12/09 00:28:13;;;;;;;15.80;9.43;;;-2.00;99.90;;;;;;5106253;27;20043;-76
2022/12/09 00:30:38;;;;;;;17.20;9.77;;;-2.10;99.90;;;;;;5109895;27;20480;-76
2022/12/09 00:33:04;;;;;;;19.70;10.83;;;-2.10;99.90;;;;;;5103869;28;20039;-76
2022/12/09 00:35:29;;;;;;;19.47;10.37;;;-2.10;99.90;;;;;;5106857;27;20496;-76
2022/12/09 00:37:55;;;;;;;18.17;10.50;;;-2.10;99.90;;;;;;5107688;27;20035;-76
2022/12/09 00:40:20;;;;;;;17.33;10.10;;;-2.10;99.90;;;;;;5109817;27;20042;-76
2022/12/09 00:42:46;;;;;;;18.40;10.30;;;-2.10;99.90;;;;;;5098781;27;20089;-76
2022/12/09 00:45:11;;;;;;;17.87;10.00;;;-2.10;99.90;;;;;;5091690;27;20380;-76
2022/12/09 00:47:37;;;;;;;20.30;10.67;;;-2.20;99.90;;;;;;5119741;27;20043;-76
2022/12/09 00:50:04;;;;;;;16.03;9.47;;;-2.20;99.90;;;;;;5105752;27;20042;-76
2022/12/09 00:52:30;;;;;;;16.50;9.83;;;-2.20;99.90;;;;;;5107127;27;20096;-74
2022/12/09 00:54:55;;;;;;;16.73;9.73;;;-2.20;99.90;;;;;;5094712;27;20028;-77
2022/12/09 00:57:21;;;;;;;17.63;9.80;;;-2.20;99.90;;;;;;5083194;27;20172;-76
2022/12/09 00:59:46;;;;;;;18.77;10.10;;;-2.20;99.90;;;;;;5127965;27;20062;-77
2022/12/09 01:02:12;;;;;;;19.30;10.23;;;-2.20;99.90;;;;;;5094794;28;20542;-76
2022/12/09 01:04:37;;;;;;;19.33;10.40;;;-2.20;99.90;;;;;;5112444;28;20040;-76
2022/12/09 01:07:03;;;;;;;18.67;10.43;;;-2.30;99.90;;;;;;5094645;28;20073;-76
2022/12/09 01:09:28;;;;;;;19.10;10.17;;;-2.40;99.90;;;;;;5093855;28;20039;-75
2022/12/09 01:11:54;;;;;;;19.93;10.83;;;-2.30;99.90;;;;;;5093717;28;20584;-77
2022/12/09 01:14:19;;;;;;;21.90;10.37;;;-2.30;99.90;;;;;;5096536;28;20110;-76
2022/12/09 01:16:45;;;;;;;20.47;10.37;;;-2.30;99.90;;;;;;5077452;28;20040;-76
2022/12/09 01:19:13;;;;;;;17.93;10.30;;;-2.20;99.90;;;;;;5093437;28;20032;-75
2022/12/09 01:21:38;;;;;;;19.70;10.20;;;-2.20;99.90;;;;;;5087349;28;20039;-76
2022/12/09 01:24:09;;;;;;;19.97;10.00;;;-2.20;99.90;;;;;;5098374;28;20046;-76
2022/12/09 01:26:36;;;;;;;18.03;10.67;;;-2.20;99.90;;;;;;5085363;27;20039;-77
2022/12/09 01:29:02;;;;;;;18.77;10.67;;;-2.20;99.90;;;;;;5109414;28;20036;-77
2022/12/09 01:31:27;;;;;;;19.17;10.93;;;-2.20;99.90;;;;;;5102231;27;20032;-75
2022/12/09 01:33:54;;;;;;;20.87;10.10;;;-2.20;99.90;;;;;;5102773;28;20035;-76
2022/12/09 01:36:25;;;;;;;20.30;10.40;;;-2.30;99.90;;;;;;5093683;28;20060;-76
2022/12/09 01:38:50;;;;;;;17.97;10.23;;;-2.30;99.90;;;;;;5093830;28;20405;-76
2022/12/09 01:41:18;;;;;;;21.10;10.40;;;-2.30;99.90;;;;;;5093760;28;20039;-76
2022/12/09 01:43:44;;;;;;;20.53;10.90;;;-2.30;99.90;;;;;;5083985;28;20157;-76
2022/12/09 01:46:10;;;;;;;18.07;9.87;;;-2.20;99.90;;;;;;5100148;28;20036;-77
2022/12/09 01:48:38;;;;;;;20.87;10.00;;;-2.20;99.90;;;;;;5093450;28;20036;-77
2022/12/09 01:51:11;;;;;;;18.10;10.47;;;-2.30;99.90;;;;;;5104408;28;20042;-76
2022/12/09 01:53:39;;;;;;;16.03;9.20;;;-2.20;99.90;;;;;;5078232;28;20029;-76
2022/12/09 01:56:09;;;;;;;17.53;9.50;;;-2.30;99.90;;;;;;5093615;28;20032;-77
2022/12/09 01:58:35;;;;;;;19.63;9.80;;;-2.30;99.90;;;;;;5076934;28;20039;-77
2022/12/09 02:01:01;;;;;;;19.40;9.87;;;-2.30;99.90;;;;;;5093563;28;20042;-77
2022/12/09 02:03:26;;;;;;;19.03;10.07;;;-2.20;99.90;;;;;;5093639;28;20031;-77
2022/12/09 02:05:52;;;;;;;19.97;10.20;;;-2.20;99.90;;;;;;5120548;28;20035;-77
2022/12/09 02:08:18;;;;;;;20.93;10.07;;;-2.20;99.90;;;;;;5086208;28;20039;-77
2022/12/09 02:11:07;;;;;;;20.00;9.67;;;-2.20;99.90;;;;;;5101985;28;20088;-77
2022/12/09 02:14:01;;;;;;;17.53;8.90;;;-2.20;99.90;;;;;;5097979;27;20035;-77
2022/12/09 02:16:32;;;;;;;20.63;10.13;;;-2.20;99.90;;;;;;5097472;28;20036;-76
2022/12/09 02:19:16;;;;;;;19.30;9.43;;;-2.20;99.90;;;;;;5097047;28;20043;-77
2022/12/09 02:21:51;;;;;;;19.52;9.90;;;-2.20;99.90;;;;;;5097072;28;20043;-76
2022/12/09 02:24:27;;;;;;;20.10;9.37;;;-2.20;99.90;;;;;;5097132;28;20552;-76
2022/12/09 02:27:13;;;;;;;18.07;9.27;;;-2.20;99.90;;;;;;5107592;27;20442;-77
2022/12/09 02:29:47;;;;;;;20.13;9.67;;;-2.20;99.90;;;;;;5115418;28;20044;-77
2022/12/09 02:32:28;;;;;;;20.13;9.40;;;-2.20;99.90;;;;;;5097928;28;20051;-75
2022/12/09 02:35:19;;;;;;;20.97;9.20;;;-2.20;99.90;;;;;;5122371;27;20043;-77
2022/12/09 02:38:01;;;;;;;19.77;9.90;;;-2.20;99.90;;;;;;5079233;27;20051;-76
2022/12/09 02:40:51;;;;;;;19.57;9.13;;;-2.30;99.90;;;;;;5104777;27;20039;-76
2022/12/09 02:43:21;;;;;;;20.13;9.63;;;-2.30;99.90;;;;;;5124148;27;20066;-76
2022/12/09 02:45:48;;;;;;;18.97;9.30;;;-2.30;99.90;;;;;;5085809;27;20058;-77
2022/12/09 02:48:17;;;;;;;19.57;8.43;;;-2.30;99.90;;;;;;5111403;27;20039;-75
2022/12/09 02:50:45;;;;;;;17.93;8.53;;;-2.30;99.90;;;;;;5103308;28;20036;-77
2022/12/09 02:53:13;;;;;;;18.07;9.23;;;-2.30;99.90;;;;;;5110014;27;20039;-76
2022/12/09 02:55:42;;;;;;;17.27;8.90;;;-2.30;99.90;;;;;;5108200;27;20062;-76
2022/12/09 02:58:08;;;;;;;23.83;9.50;;;-2.40;99.90;;;;;;5106351;27;20456;-76
2022/12/09 03:00:33;;;;;;;20.20;8.80;;;-2.30;99.90;;;;;;5128095;27;20066;-76
2022/12/09 03:03:02;;;;;;;20.07;10.03;;;-2.30;99.90;;;;;;5108647;27;20085;-77
2022/12/09 03:05:48;;;;;;;17.43;9.07;;;-2.40;99.90;;;;;;5100388;27;20594;-77
2022/12/09 03:08:26;;;;;;;18.63;9.20;;;-2.40;99.90;;;;;;5105097;27;20076;-77
2022/12/09 03:11:05;;;;;;;19.70;8.50;;;-2.40;99.90;;;;;;5106807;27;20027;-76
2022/12/09 03:13:51;;;;;;;18.40;9.53;;;-2.50;99.90;;;;;;5103933;27;20059;-76
2022/12/09 03:16:31;;;;;;;19.67;9.93;;;-2.50;99.90;;;;;;5109054;27;20095;-76
2022/12/09 03:19:21;;;;;;;16.90;9.00;;;-2.50;99.90;;;;;;5110145;27;20051;-76
2022/12/09 03:21:50;;;;;;;16.37;8.27;;;-2.50;99.90;;;;;;5101568;27;20039;-76
2022/12/09 03:24:23;;;;;;;17.90;8.67;;;-2.60;99.90;;;;;;5102927;27;20046;-76
2022/12/09 03:26:49;;;;;;;18.40;8.83;;;-2.60;99.90;;;;;;5109742;27;20444;-77
2022/12/09 03:29:18;;;;;;;20.67;9.13;;;-2.60;99.90;;;;;;5102226;27;20032;-75
2022/12/09 03:31:45;;;;;;;19.10;8.93;;;-2.60;99.90;;;;;;5107080;28;20092;-76
2022/12/09 03:34:16;;;;;;;23.30;9.23;;;-2.60;99.90;;;;;;5088093;27;20408;-75
2022/12/09 03:36:45;;;;;;;17.03;8.43;;;-2.60;99.90;;;;;;5110779;27;20035;-76
2022/12/09 03:39:13;;;;;;;21.60;9.43;;;-2.60;99.90;;;;;;5102103;28;20066;-76
2022/12/09 03:41:45;;;;;;;18.87;9.70;;;-2.60;99.90;;;;;;5103683;27;20396;-76
2022/12/09 03:44:16;;;;;;;19.73;9.67;;;-2.50;99.90;;;;;;5093930;27;20054;-76
2022/12/09 03:46:42;;;;;;;19.33;9.53;;;-2.50;99.90;;;;;;5090036;27;20035;-75
2022/12/09 03:49:08;;;;;;;20.47;9.80;;;-2.40;99.90;;;;;;5105662;27;20046;-75
2022/12/09 03:51:36;;;;;;;21.73;9.53;;;-2.50;99.90;;;;;;5083887;27;20039;-77
2022/12/09 03:54:14;;;;;;;22.30;10.80;;;-2.50;99.90;;;;;;5111950;27;20039;-77
2022/12/09 03:56:44;;;;;;;21.43;9.57;;;-2.50;99.90;;;;;;5086607;28;20031;-77
2022/12/09 03:59:12;;;;;;;21.40;10.10;;;-2.50;99.90;;;;;;5108838;27;20042;-77
2022/12/09 04:01:39;;;;;;;23.03;9.97;;;-2.60;99.90;;;;;;5105893;28;20048;-77
2022/12/09 04:04:05;;;;;;;22.03;10.30;;;-2.60;99.90;;;;;;5110046;27;20038;-77
2022/12/09 04:06:31;;;;;;;19.83;10.03;;;-2.60;99.90;;;;;;5109784;27;20035;-76
2022/12/09 04:08:56;;;;;;;20.13;9.00;;;-2.60;99.90;;;;;;5105289;27;20035;-74
2022/12/09 04:11:22;;;;;;;19.53;9.47;;;-2.70;99.90;;;;;;5104469;27;20046;-76
2022/12/09 04:13:47;;;;;;;18.63;9.50;;;-2.70;99.90;;;;;;5098840;27;20032;-76
2022/12/09 04:16:13;;;;;;;20.50;9.23;;;-2.70;99.90;;;;;;5102381;27;20042;-76
2022/12/09 04:18:38;;;;;;;19.67;9.90;;;-2.70;99.90;;;;;;5111807;27;20046;-76
2022/12/09 04:21:09;;;;;;;19.83;9.57;;;-2.70;99.90;;;;;;5110358;27;20526;-76
2022/12/09 04:23:35;;;;;;;17.33;8.67;;;-2.70;99.90;;;;;;5096342;27;20051;-76
2022/12/09 04:26:00;;;;;;;21.87;9.63;;;-2.70;99.90;;;;;;5099566;28;20069;-76
2022/12/09 04:28:26;;;;;;;19.43;9.00;;;-2.70;99.90;;;;;;5098514;27;20030;-76
2022/12/09 04:30:51;;;;;;;22.33;10.40;;;-2.80;99.90;;;;;;5108723;27;20032;-76
2022/12/09 04:33:17;;;;;;;21.43;11.07;;;-2.70;99.90;;;;;;5109717;27;20042;-75
2022/12/09 04:35:43;;;;;;;21.83;10.40;;;-2.80;99.90;;;;;;5105801;27;20039;-75
2022/12/09 04:38:08;;;;;;;20.97;10.30;;;-2.80;99.90;;;;;;5104764;27;20039;-76
2022/12/09 04:40:34;;;;;;;21.90;10.03;;;-2.80;99.90;;;;;;5109609;27;20042;-75
2022/12/09 04:42:59;;;;;;;20.20;9.97;;;-2.80;99.90;;;;;;5090864;28;20036;-76
2022/12/09 04:45:25;;;;;;;21.87;10.60;;;-2.80;99.90;;;;;;5106657;27;20031;-76
2022/12/09 04:47:50;;;;;;;21.77;10.80;;;-2.80;99.90;;;;;;5081432;27;20125;-76
2022/12/09 04:50:16;;;;;;;22.17;10.17;;;-2.90;99.90;;;;;;5106895;27;20039;-76
2022/12/09 04:52:42;;;;;;;24.50;11.07;;;-2.80;99.90;;;;;;5113546;27;20085;-75
2022/12/09 04:55:08;;;;;;;25.43;11.10;;;-2.90;99.90;;;;;;5099239;28;20412;-75
2022/12/09 04:57:34;;;;;;;20.30;10.33;;;-2.90;99.90;;;;;;5104575;27;20035;-76
2022/12/09 05:00:00;;;;;;;22.87;10.03;;;-2.90;99.90;;;;;;5101266;27;20035;-76
2022/12/09 05:02:25;;;;;;;24.00;11.07;;;-2.90;99.90;;;;;;5106418;27;20413;-77
2022/12/09 05:04:51;;;;;;;22.30;11.67;;;-2.90;99.90;;;;;;5088136;27;20035;-75
2022/12/09 05:07:17;;;;;;;22.83;10.50;;;-2.90;99.90;;;;;;5106425;27;20408;-76
2022/12/09 05:09:42;;;;;;;22.10;10.77;;;-2.90;99.90;;;;;;5094341;27;20031;-76
2022/12/09 05:12:08;;;;;;;21.00;10.80;;;-2.90;99.90;;;;;;5096762;28;20032;-76
2022/12/09 05:14:34;;;;;;;22.30;10.23;;;-2.90;99.90;;;;;;5101570;27;20039;-76
2022/12/09 05:17:00;;;;;;;20.57;10.63;;;-2.90;99.90;;;;;;5102514;27;20404;-77
2022/12/09 05:19:26;;;;;;;23.27;10.33;;;-2.90;99.90;;;;;;5106810;27;20519;-76
2022/12/09 05:21:51;;;;;;;21.87;10.63;;;-2.90;99.90;;;;;;5101577;27;20063;-76
2022/12/09 05:24:17;;;;;;;25.40;11.50;;;-2.90;99.90;;;;;;5102636;27;20039;-76
2022/12/09 05:26:42;;;;;;;22.80;11.07;;;-2.80;99.90;;;;;;5107226;27;20031;-76
2022/12/09 05:29:08;;;;;;;22.67;11.13;;;-2.90;99.90;;;;;;5101296;27;20118;-76
2022/12/09 05:31:33;;;;;;;22.10;10.83;;;-2.90;99.90;;;;;;5109057;28;20119;-76
2022/12/09 05:33:59;;;;;;;22.13;11.47;;;-2.90;99.90;;;;;;5107596;28;20038;-76
2022/12/09 05:36:28;;;;;;;22.33;10.33;;;-2.90;99.90;;;;;;5102112;28;20129;-76
2022/12/09 05:38:54;;;;;;;25.33;11.07;;;-2.90;99.90;;;;;;5103627;28;20046;-76
2022/12/09 05:41:21;;;;;;;22.07;10.77;;;-2.90;99.90;;;;;;5107514;28;20487;-76
2022/12/09 05:43:47;;;;;;;21.43;11.23;;;-2.90;99.90;;;;;;5090440;28;20047;-76
2022/12/09 05:46:13;;;;;;;23.43;10.60;;;-2.90;99.90;;;;;;5105458;27;20044;-76
2022/12/09 05:48:39;;;;;;;20.10;9.47;;;-3.00;99.90;;;;;;5111658;27;20106;-76
2022/12/09 05:51:07;;;;;;;21.00;10.47;;;-3.00;99.90;;;;;;5108085;27;20157;-76
2022/12/09 05:53:33;;;;;;;25.10;10.60;;;-3.00;99.90;;;;;;5104552;27;20043;-76
2022/12/09 05:55:59;;;;;;;21.53;10.33;;;-3.00;99.90;;;;;;5097610;28;20389;-76
2022/12/09 05:58:24;;;;;;;26.10;11.60;;;-3.00;99.90;;;;;;5111945;27;20042;-76
2022/12/09 06:00:50;;;;;;;24.00;11.73;;;-3.00;99.90;;;;;;5104987;28;20040;-75
2022/12/09 06:03:16;;;;;;;22.83;10.50;;;-3.00;99.90;;;;;;5114602;27;20037;-75
2022/12/09 06:05:42;;;;;;;22.80;10.87;;;-3.00;99.90;;;;;;5109940;27;20036;-75
2022/12/09 06:08:07;;;;;;;23.33;11.13;;;-3.00;99.90;;;;;;5111603;27;20043;-76
2022/12/09 06:10:34;;;;;;;23.10;11.07;;;-3.10;99.90;;;;;;5110438;27;20476;-75
2022/12/09 06:12:59;;;;;;;24.57;11.60;;;-3.10;99.90;;;;;;5087358;28;20028;-76
2022/12/09 06:15:25;;;;;;;20.97;10.60;;;-3.10;99.90;;;;;;5112247;27;20038;-76
2022/12/09 06:17:50;;;;;;;23.33;10.60;;;-3.10;99.90;;;;;;5110453;27;20495;-76
2022/12/09 06:20:17;;;;;;;24.67;11.93;;;-3.10;99.90;;;;;;5130014;27;20039;-76
2022/12/09 06:22:43;;;;;;;22.37;10.57;;;-3.10;99.90;;;;;;5105765;28;20044;-76
2022/12/09 06:25:08;;;;;;;27.73;10.77;;;-3.10;99.90;;;;;;5103635;27;20061;-76
2022/12/09 06:27:34;;;;;;;24.00;11.90;;;-3.10;99.90;;;;;;5108661;27;20164;-75
2022/12/09 06:30:00;;;;;;;21.87;11.13;;;-3.10;99.90;;;;;;5112318;27;20027;-76
2022/12/09 06:32:25;;;;;;;27.57;12.27;;;-3.10;99.90;;;;;;5125272;27;20031;-76
2022/12/09 06:34:51;;;;;;;23.27;11.33;;;-3.10;99.90;;;;;;5117843;27;20065;-75
2022/12/09 06:37:16;;;;;;;22.77;11.10;;;-3.10;99.90;;;;;;5107344;27;20071;-76
2022/12/09 06:39:42;;;;;;;22.27;10.93;;;-3.10;99.90;;;;;;5122601;27;20118;-76
2022/12/09 06:42:08;;;;;;;26.70;10.87;;;-3.10;99.90;;;;;;5130293;27;20471;-76
2022/12/09 06:44:34;;;;;;;24.90;11.17;;;-3.10;99.90;;;;;;5100482;27;20040;-75
2022/12/09 06:47:00;;;;;;;24.70;11.07;;;-3.10;99.90;;;;;;5111630;27;20077;-76
2022/12/09 06:49:25;;;;;;;27.53;12.03;;;-3.10;99.90;;;;;;5111324;27;20031;-74
2022/12/09 06:51:51;;;;;;;23.20;10.87;;;-3.10;99.90;;;;;;5113233;27;20034;-75
2022/12/09 06:54:16;;;;;;;24.97;12.00;;;-3.10;99.90;;;;;;5104609;27;20032;-75
2022/12/09 06:56:42;;;;;;;21.03;10.20;;;-3.10;99.90;;;;;;5098094;28;20033;-75
2022/12/09 06:59:09;;;;;;;22.90;11.77;;;-3.20;99.90;;;;;;5128929;27;20088;-75
2022/12/09 07:01:35;;;;;;;22.87;11.10;;;-3.10;99.90;;;;;;5091666;27;20032;-75
2022/12/09 07:04:03;;;;;;;21.37;10.77;;;-3.10;99.90;;;;;;5105589;27;20084;-75
2022/12/09 07:06:34;;;;;;;22.50;10.90;;;-3.10;99.90;;;;;;5111755;27;20031;-76
2022/12/09 07:09:03;;;;;;;23.43;10.63;;;-3.00;99.90;;;;;;5086673;28;20572;-76
2022/12/09 07:11:29;;;;;;;21.77;10.57;;;-3.00;99.90;;;;;;5106746;27;20084;-75
2022/12/09 07:13:54;;;;;;;24.90;11.57;;;-3.00;99.90;;;;;;5101250;27;20031;-75
2022/12/09 07:16:20;;;;;;;28.70;11.37;;;-3.00;99.90;;;;;;5096211;28;20445;-75
2022/12/09 07:18:45;;;;;;;23.77;10.77;;;-3.00;99.90;;;;;;5095801;27;20134;-76
2022/12/09 07:21:14;;;;;;;22.40;10.87;;;-3.00;99.90;;;;;;5105745;28;20524;-75
2022/12/09 07:23:39;;;;;;;24.27;11.07;;;-3.00;99.90;;;;;;5107314;27;20043;-75
2022/12/09 07:26:05;;;;;;;26.97;11.10;;;-3.00;99.90;;;;;;5080267;28;20119;-75
2022/12/09 07:28:35;;;;;;;23.80;11.50;;;-3.00;99.90;;;;;;5112636;27;20035;-76
2022/12/09 07:31:02;;;;;;;24.60;11.13;;;-3.10;99.90;;;;;;5103555;27;20035;-75
2022/12/09 07:33:28;;;;;;;23.80;11.67;;;-3.10;99.90;;;;;;5098057;27;20040;-75
2022/12/09 07:35:54;;;;;;;24.33;10.83;;;-3.10;99.90;;;;;;5107007;28;20492;-75
2022/12/09 07:38:21;;;;;;;22.50;10.63;;;-3.10;99.90;;;;;;5104726;27;20085;-75
2022/12/09 07:40:47;;;;;;;22.83;10.70;;;-3.10;99.90;;;;;;5110606;27;20496;-74
2022/12/09 07:43:12;;;;;;;25.00;11.23;;;-3.10;99.90;;;;;;5107249;27;20039;-75
2022/12/09 07:45:39;;;;;;;22.60;10.20;;;-3.10;99.90;;;;;;5103879;27;20049;-74
2022/12/09 07:48:05;;;;;;;23.60;11.27;;;-3.00;99.90;;;;;;5105275;28;20032;-75
2022/12/09 07:50:31;;;;;;;22.40;10.97;;;-3.40;99.90;;;;;;5107811;27;20035;-74
2022/12/09 07:52:57;;;;;;;24.27;12.00;;;-3.00;99.90;;;;;;5107454;27;20488;-75
2022/12/09 07:55:23;;;;;;;25.03;12.23;;;-2.90;99.90;;;;;;5101371;27;20036;-76
2022/12/09 07:57:48;;;;;;;25.07;12.23;;;-2.90;99.90;;;;;;5103827;27;20042;-76
2022/12/09 08:00:14;;;;;;;25.50;12.30;;;-2.90;99.90;;;;;;5104100;28;20039;-76
2022/12/09 08:02:40;;;;;;;29.67;13.00;;;-2.90;99.90;;;;;;5091969;28;20040;-76
2022/12/09 08:05:06;;;;;;;26.60;12.20;;;-2.80;99.90;;;;;;5099641;27;20039;-76
2022/12/09 08:07:32;;;;;;;27.13;13.60;;;-2.80;99.90;;;;;;5103310;27;20028;-75
2022/12/09 08:09:57;;;;;;;30.53;14.53;;;-2.80;99.90;;;;;;5108070;27;20063;-76
2022/12/09 08:12:23;;;;;;;31.60;14.37;;;-2.80;99.90;;;;;;5108361;27;20054;-76
2022/12/09 08:14:48;;;;;;;32.10;14.43;;;-2.70;99.90;;;;;;5109262;27;20495;-76
2022/12/09 08:17:15;;;;;;;29.37;14.47;;;-2.70;99.90;;;;;;5099740;27;20035;-76
2022/12/09 08:19:41;;;;;;;29.10;14.63;;;-2.60;99.90;;;;;;5107788;28;20069;-76
2022/12/09 08:22:06;;;;;;;38.10;15.97;;;-2.50;99.90;;;;;;5103881;27;20113;-76
2022/12/09 08:24:32;;;;;;;33.80;16.13;;;-2.40;99.90;;;;;;5104351;27;20042;-76
2022/12/09 08:26:58;;;;;;;35.30;16.23;;;-2.30;99.90;;;;;;5098647;28;20031;-76
2022/12/09 08:29:24;;;;;;;43.77;18.30;;;-2.10;99.90;;;;;;5099882;27;20042;-76
2022/12/09 08:31:50;;;;;;;43.27;18.37;;;-2.10;99.90;;;;;;5108072;27;20110;-76
2022/12/09 08:34:15;;;;;;;42.97;19.27;;;-1.90;99.90;;;;;;5100609;27;20062;-76
2022/12/09 08:36:41;;;;;;;44.33;19.77;;;-1.80;99.90;;;;;;5106536;27;20031;-75
2022/12/09 08:39:07;;;;;;;42.83;18.53;;;-1.80;99.90;;;;;;5107454;27;20059;-77
2022/12/09 08:41:34;;;;;;;40.77;18.60;;;-1.70;99.90;;;;;;5107777;27;20036;-75
2022/12/09 08:44:18;;;;;;;42.47;18.47;;;-1.70;99.90;;;;;;5107032;27;20039;-75
2022/12/09 08:46:48;;;;;;;44.20;18.30;;;-1.50;99.90;;;;;;5106549;27;20080;-75
2022/12/09 08:49:18;;;;;;;43.60;18.83;;;-1.50;99.90;;;;;;5100170;27;20502;-75
2022/12/09 08:51:45;;;;;;;42.27;18.20;;;-1.40;99.90;;;;;;5106800;27;20508;-75
2022/12/09 08:54:11;;;;;;;50.27;20.10;;;-1.40;99.90;;;;;;5100632;28;20209;-75
2022/12/09 08:56:36;;;;;;;53.60;20.60;;;-1.30;99.90;;;;;;5093762;28;20478;-75
2022/12/09 08:59:03;;;;;;;90.17;22.97;;;-1.20;99.90;;;;;;5093519;28;20043;-74
2022/12/09 09:01:33;;;;;;;110.83;23.27;;;-1.10;99.90;;;;;;5076940;28;20046;-73
2022/12/09 09:04:01;;;;;;;74.83;21.73;;;-1.10;99.90;;;;;;5094023;28;20044;-73
2022/12/09 09:06:27;;;;;;;108.77;21.67;;;-1.00;99.90;;;;;;5093757;28;20051;-73
2022/12/09 09:08:55;;;;;;;184.13;23.77;;;-1.00;99.90;;;;;;5094000;28;20040;-73
2022/12/09 09:11:22;;;;;;;164.10;23.63;;;-1.00;99.90;;;;;;5093748;28;20530;-72
2022/12/09 09:13:51;;;;;;;123.87;23.43;;;-0.90;99.90;;;;;;5095699;27;20401;-72
2022/12/09 09:16:19;;;;;;;63.13;21.90;;;-0.90;99.90;;;;;;5105838;28;20050;-73
2022/12/09 09:18:45;;;;;;;97.90;22.17;;;-0.90;99.90;;;;;;5093588;28;20092;-73
2022/12/09 09:21:13;;;;;;;61.13;21.33;;;-0.80;99.90;;;;;;5093884;28;20562;-73
2022/12/09 09:23:38;;;;;;;107.90;22.53;;;-0.80;99.90;;;;;;5094029;28;20524;-74
2022/12/09 09:26:07;;;;;;;82.80;22.53;;;-0.70;99.90;;;;;;5093482;28;20031;-74
2022/12/09 09:28:33;;;;;;;123.20;22.13;;;-0.70;99.90;;;;;;5093786;28;20046;-74
2022/12/09 09:31:04;;;;;;;299.70;28.40;;;-0.70;99.90;;;;;;5093707;28;20036;-74
2022/12/09 09:33:29;;;;;;;106.77;23.93;;;-0.70;99.90;;;;;;5093886;28;20089;-74
2022/12/09 09:35:57;;;;;;;275.07;27.07;;;-0.70;99.90;;;;;;5093822;28;20047;-74
2022/12/09 09:38:23;;;;;;;110.47;22.87;;;-0.60;99.90;;;;;;5093371;28;20497;-74
2022/12/09 09:40:48;;;;;;;128.63;23.83;;;-0.60;99.90;;;;;;5093715;28;20126;-74
2022/12/09 09:43:16;;;;;;;124.90;25.17;;;-0.70;99.90;;;;;;5093615;28;20078;-73
2022/12/09 09:45:43;;;;;;;79.67;21.83;;;-0.60;99.90;;;;;;5093527;28;20467;-74
2022/12/09 09:48:17;;;;;;;77.93;22.13;;;-0.60;99.90;;;;;;5093148;28;20122;-74
2022/12/09 09:51:08;;;;;;;58.93;19.57;;;-0.80;99.90;;;;;;5093370;28;20039;-74
2022/12/09 09:53:35;;;;;;;70.20;20.70;;;-0.70;99.90;;;;;;5093326;28;20119;-74
2022/12/09 09:56:11;;;;;;;61.70;19.80;;;-0.70;99.90;;;;;;5089627;28;20043;-75
2022/12/09 09:58:40;;;;;;;48.27;18.60;;;-0.80;99.90;;;;;;5106766;28;20118;-74
2022/12/09 10:01:17;;;;;;;52.17;19.00;;;-0.70;99.90;;;;;;5092884;28;20039;-75
2022/12/09 10:04:17;;;;;;;50.80;20.13;;;-0.70;99.90;;;;;;5093168;28;20047;-75
2022/12/09 10:07:05;;;;;;;54.27;20.07;;;-0.70;99.90;;;;;;5093006;28;20040;-76
2022/12/09 10:09:47;;;;;;;57.13;19.47;;;-0.70;99.90;;;;;;5093062;28;20574;-75
2022/12/09 10:12:17;;;;;;;51.90;18.97;;;-0.60;99.90;;;;;;5093299;28;20031;-76
2022/12/09 10:15:08;;;;;;;51.27;17.90;;;-0.60;99.90;;;;;;5102453;28;20111;-77
2022/12/09 10:17:46;;;;;;;45.07;17.87;;;-0.50;99.90;;;;;;5087227;28;20493;-76
2022/12/09 10:20:25;;;;;;;57.93;18.57;;;-0.50;99.90;;;;;;5092949;28;20515;-76
2022/12/09 10:22:58;;;;;;;61.90;19.40;;;-0.50;99.90;;;;;;5093039;28;20032;-76
2022/12/09 10:25:26;;;;;;;90.30;20.10;;;-0.50;99.90;;;;;;5092951;28;20048;-75
2022/12/09 10:28:06;;;;;;;71.10;19.93;;;-0.50;99.90;;;;;;5110917;28;20031;-75
2022/12/09 10:30:31;;;;;;;73.07;20.23;;;-0.50;99.90;;;;;;5092783;28;20044;-76
2022/12/09 10:32:57;;;;;;;53.03;19.57;;;-0.50;99.90;;;;;;5094295;28;20089;-76
2022/12/09 10:35:26;;;;;;;58.27;18.13;;;-0.50;99.90;;;;;;5079864;28;20043;-75
2022/12/09 10:37:54;;;;;;;93.03;19.90;;;-0.50;99.90;;;;;;5096598;28;20457;-75
2022/12/09 10:40:21;;;;;;;54.03;18.93;;;-0.50;99.90;;;;;;5079666;28;20492;-74
2022/12/09 10:45:47;;;;;;;138.05;22.73;;;-0.50;99.90;;;;;;5108797;27;20043;-74
2022/12/09 10:48:30;;;;;;;69.22;20.17;;;-0.50;99.90;;;;;;5097077;28;20036;-75
2022/12/09 10:51:02;;;;;;;72.53;19.63;;;-0.50;99.90;;;;;;5096377;28;20036;-74
2022/12/09 10:53:29;;;;;;;62.23;19.27;;;-0.50;99.90;;;;;;5085722;27;20053;-74
2022/12/09 10:55:57;;;;;;;84.03;20.10;;;-0.50;99.90;;;;;;5104229;28;20405;-74
2022/12/09 10:58:28;;;;;;;71.97;19.90;;;-0.50;99.90;;;;;;5079197;28;20045;-75
2022/12/09 11:01:08;;;;;;;66.70;19.93;;;-0.50;99.90;;;;;;5096321;28;20040;-75
2022/12/09 11:03:48;;;;;;;64.57;20.57;;;-0.50;99.90;;;;;;5096152;28;20496;-76
2022/12/09 11:06:22;;;;;;;51.63;20.10;;;-0.50;99.90;;;;;;5096045;28;20039;-76
2022/12/09 11:08:54;;;;;;;53.20;18.90;;;-0.40;99.90;;;;;;5095943;28;20042;-77
2022/12/09 11:11:46;;;;;;;59.13;19.73;;;-0.40;99.90;;;;;;5095919;28;20040;-77
2022/12/09 11:14:25;;;;;;;55.33;19.50;;;-0.40;99.90;;;;;;5100801;27;20031;-77
2022/12/09 11:16:58;;;;;;;57.30;19.77;;;-0.40;99.90;;;;;;5103425;28;20100;-77
2022/12/09 11:19:32;;;;;;;73.07;21.93;;;-0.30;99.90;;;;;;5095815;28;20537;-76
2022/12/09 11:22:40;;;;;;;99.77;23.10;;;-0.30;99.90;;;;;;5095764;28;20077;-76
2022/12/09 11:25:14;;;;;;;77.47;22.17;;;-0.30;99.90;;;;;;5095689;28;20054;-76
2022/12/09 11:27:39;;;;;;;;;;;-0.30;99.90;;;;;;5079234;28;20040;-75
2022/12/09 11:30:17;;;;;;;49.07;19.00;;;-0.10;99.90;;;;;;5095581;28;19923;-76
2022/12/09 11:32:57;;;;;;;87.27;21.70;;;-0.30;99.90;;;;;;5095464;28;20027;-75
2022/12/09 11:35:31;;;;;;;65.87;20.67;;;-0.20;99.90;;;;;;5095588;28;20054;-76
2022/12/09 11:37:58;;;;;;;;;;;-0.20;99.90;;;;;;5095876;28;20435;-77
2022/12/09 11:40:26;;;;;;;70.83;21.70;;;-0.20;99.90;;;;;;5096284;28;19950;-78
2022/12/09 11:42:52;;;;;;;69.03;20.60;;;-0.20;99.90;;;;;;5098123;28;20044;-79
2022/12/09 11:45:39;;;;;;;81.80;22.13;;;-0.20;99.90;;;;;;5099429;28;20035;-80
2022/12/09 11:48:22;;;;;;;56.07;19.13;;;-0.20;99.90;;;;;;5101811;28;20032;-81
2022/12/09 11:50:50;;;;;;;99.22;23.30;;;-0.20;99.90;;;;;;5083415;28;20084;-81
2022/12/09 11:53:45;;;;;;;76.93;22.57;;;-0.20;99.90;;;;;;5095818;28;20032;-82
2022/12/09 11:56:16;;;;;;;54.43;21.60;;;-0.10;99.90;;;;;;5077912;28;20127;-82
2022/12/09 11:58:49;;;;;;;48.10;21.60;;;-0.10;99.90;;;;;;5095626;28;20519;-82
2022/12/09 12:01:35;;;;;;;57.93;23.10;;;-0.10;99.90;;;;;;5080907;28;20039;-81
2022/12/09 12:04:09;;;;;;;57.30;21.03;;;0.00;99.90;;;;;;5091108;27;20041;-80
2022/12/09 12:06:45;;;;;;;;;;;0.00;99.90;;;;;;5088075;28;20539;-80
2022/12/09 12:09:16;;;;;;;50.40;19.33;;;0.00;99.90;;;;;;5101510;28;19963;-79
2022/12/09 12:12:03;;;;;;;51.80;21.20;;;0.10;99.90;;;;;;5100408;28;20046;-79
2022/12/09 12:14:29;;;;;;;55.80;22.10;;;0.10;99.90;;;;;;5104428;27;20043;-78
2022/12/09 12:17:06;;;;;;;60.43;22.23;;;0.10;99.90;;;;;;5102321;28;20085;-77
2022/12/09 12:19:36;;;;;;;58.77;21.33;;;0.00;99.90;;;;;;5095601;28;20040;-78
2022/12/09 12:22:20;;;;;;;54.57;23.30;;;0.00;99.90;;;;;;5079918;28;20035;-80
2022/12/09 12:25:15;;;;;;;66.47;23.33;;;0.10;99.90;;;;;;5096874;28;20047;-79
2022/12/09 12:27:55;;;;;;;54.27;21.70;;;0.10;99.90;;;;;;5096804;27;20046;-78
2022/12/09 12:30:24;;;;;;;65.33;22.90;;;0.00;99.90;;;;;;5086084;28;20043;-78
2022/12/09 12:33:18;;;;;;;57.57;23.27;;;0.00;99.90;;;;;;5094466;28;20485;-77
2022/12/09 12:35:46;;;;;;;50.17;22.00;;;0.00;99.90;;;;;;5094633;28;20066;-77
2022/12/09 12:38:31;;;;;;;52.97;22.10;;;0.00;99.90;;;;;;5094119;28;20066;-77
2022/12/09 12:41:08;;;;;;;58.30;21.00;;;0.00;99.90;;;;;;5094192;28;20052;-77
2022/12/09 12:47:20;;;;;;;51.33;21.57;;;0.00;99.90;;;;;;5063692;27;20161;-77
2022/12/09 12:49:51;;;;;;;51.60;21.77;;;0.00;99.90;;;;;;5096281;28;20117;-77